Aérodrome :
LOGIN :

S'inscrire | Disclaimer

   EN    FR    IT 

 










Légende :    VFR   VFR Marginal   IFR   IFR Intensif   IFR Très Intensif
Visi : 
Plafond : 
>= 8 km
>= 3000ft
5 à 8 km
1000 à 3000 ft
1500m à 5 km
500 à 1000 ft
800 à 1500m
200 à 500 ft
< 800m
< 200 ft
Symboles :   Orages  Brouillard  Fortes neiges  Fortes précipitations  Vent > 20 kt
SIGMETs :   Divers  Orages  Givrage  Turbulence  Onde Orograph.  Cendres Volcan.







- Altitude de l'aérodrome : 333 ft


LIPL - Ghedi Brescia (Mil)

DERNIER METAR :
  • 230055Z 21001KT CAVOK 23/21 Q1020 RMK SKC VIS MIN 9999 WIND THR31 21002KT WIND THR13 19001KT BLU

METARs EXPIRÉS :
  • 222355Z 36001KT CAVOK 23/21 Q1020 RMK SKC VIS MIN 9999 WIND THR31 36002KT WIND THR13 34002KT BLU
  • 222255Z 34003KT CAVOK 23/21 Q1020 RMK SKC VIS MIN 9999 WIND THR31 36002KT WIND THR13 34002KT BLU

TAF TAF LIPL
Valide du 23 à 00h jusqu'au 23 à 09h UTC


222300Z 2300/2309 VRB05KT 9999 SCT030
TEMPO 2300/2309 5000 TSRA FEW025CB SCT030
Pas de NOTAMs connus pour ce terrain.



MET'MAP, la Météo Aéronautique d'un coup d'oeil ! - Copyright ORBIFLY Décembre 2007 - Disclaimer

ORBIFLY MET'MAP TEAM :

Programmation & Développement : Alexandra Zaïnal
Conception & Développement : Baudouin d'Aumeries
Co-Programmation & Développement : Marc-Olivier Méhu
Soutien technique & logistique : Manuel Goepfert

Contact : metmap@orbifly.com




SOURCES & CREDITS :

   NOAA